sensor_id;sensor_type;location;lat;lon;timestamp;pressure;altitude;pressure_sealevel;temperature;humidity
47556;BME280;33291;46.222;26.460;2023-05-29T00:02:01;96539.19;;;14.86;88.15
47556;BME280;33291;46.222;26.460;2023-05-29T00:04:26;96525.25;;;14.77;88.34
47556;BME280;33291;46.222;26.460;2023-05-29T00:06:51;96510.50;;;14.68;88.31
47556;BME280;33291;46.222;26.460;2023-05-29T00:09:17;96539.53;;;14.83;88.20
47556;BME280;33291;46.222;26.460;2023-05-29T00:11:42;96520.66;;;14.71;88.39
47556;BME280;33291;46.222;26.460;2023-05-29T00:14:08;96531.00;;;14.72;88.47
47556;BME280;33291;46.222;26.460;2023-05-29T00:16:37;96527.09;;;14.68;88.55
47556;BME280;33291;46.222;26.460;2023-05-29T00:19:03;96528.38;;;14.64;88.64
47556;BME280;33291;46.222;26.460;2023-05-29T00:21:29;96523.47;;;14.61;88.56
47556;BME280;33291;46.222;26.460;2023-05-29T00:23:54;96518.53;;;14.58;88.66
47556;BME280;33291;46.222;26.460;2023-05-29T00:26:19;96535.44;;;14.64;88.62
47556;BME280;33291;46.222;26.460;2023-05-29T00:28:46;96527.38;;;14.57;88.50
47556;BME280;33291;46.222;26.460;2023-05-29T00:31:11;96536.53;;;14.53;88.90
47556;BME280;33291;46.222;26.460;2023-05-29T00:33:37;96538.00;;;14.47;89.06
47556;BME280;33291;46.222;26.460;2023-05-29T00:36:02;96529.97;;;14.40;89.32
47556;BME280;33291;46.222;26.460;2023-05-29T00:38:28;96538.66;;;14.41;89.24
47556;BME280;33291;46.222;26.460;2023-05-29T00:40:53;96542.09;;;14.42;89.44
47556;BME280;33291;46.222;26.460;2023-05-29T00:43:19;96539.78;;;14.38;89.22
47556;BME280;33291;46.222;26.460;2023-05-29T00:45:44;96549.16;;;14.41;89.48
47556;BME280;33291;46.222;26.460;2023-05-29T00:48:10;96515.22;;;14.23;88.99
47556;BME280;33291;46.222;26.460;2023-05-29T00:50:35;96536.19;;;14.39;88.82
47556;BME280;33291;46.222;26.460;2023-05-29T00:53:02;96532.91;;;14.37;88.81
47556;BME280;33291;46.222;26.460;2023-05-29T00:55:30;96539.00;;;14.38;88.64
47556;BME280;33291;46.222;26.460;2023-05-29T00:57:56;96545.84;;;14.39;88.66
47556;BME280;33291;46.222;26.460;2023-05-29T01:00:21;96547.16;;;14.35;88.50
47556;BME280;33291;46.222;26.460;2023-05-29T01:02:48;96548.94;;;14.26;88.78
47556;BME280;33291;46.222;26.460;2023-05-29T01:05:14;96543.88;;;14.25;89.08
47556;BME280;33291;46.222;26.460;2023-05-29T01:07:40;96540.88;;;14.19;89.13
47556;BME280;33291;46.222;26.460;2023-05-29T01:10:07;96539.91;;;14.12;89.52
47556;BME280;33291;46.222;26.460;2023-05-29T01:12:47;96530.41;;;14.03;89.79
47556;BME280;33291;46.222;26.460;2023-05-29T01:15:24;96537.47;;;14.11;89.55
47556;BME280;33291;46.222;26.460;2023-05-29T01:21:13;96543.81;;;14.08;89.12
47556;BME280;33291;46.222;26.460;2023-05-29T01:23:52;96528.59;;;13.95;89.06
47556;BME280;33291;46.222;26.460;2023-05-29T01:26:22;96539.22;;;14.02;89.43
47556;BME280;33291;46.222;26.460;2023-05-29T01:28:52;96523.13;;;13.89;89.34
47556;BME280;33291;46.222;26.460;2023-05-29T01:31:23;96540.69;;;13.96;89.35
47556;BME280;33291;46.222;26.460;2023-05-29T01:33:58;96539.34;;;13.92;89.32
47556;BME280;33291;46.222;26.460;2023-05-29T01:36:25;96535.38;;;13.80;89.45
47556;BME280;33291;46.222;26.460;2023-05-29T01:38:53;96533.88;;;13.69;89.61
47556;BME280;33291;46.222;26.460;2023-05-29T01:41:19;96539.47;;;13.74;89.53
47556;BME280;33291;46.222;26.460;2023-05-29T01:43:47;96535.31;;;13.63;89.31
47556;BME280;33291;46.222;26.460;2023-05-29T01:46:13;96553.34;;;13.66;89.55
47556;BME280;33291;46.222;26.460;2023-05-29T01:48:41;96530.34;;;13.44;89.96
47556;BME280;33291;46.222;26.460;2023-05-29T01:51:06;96522.69;;;13.32;90.09
47556;BME280;33291;46.222;26.460;2023-05-29T01:53:32;96554.19;;;13.41;90.52
47556;BME280;33291;46.222;26.460;2023-05-29T01:55:58;96551.88;;;13.38;90.29
47556;BME280;33291;46.222;26.460;2023-05-29T01:58:24;96546.41;;;13.31;90.26
47556;BME280;33291;46.222;26.460;2023-05-29T02:00:51;96555.06;;;13.31;90.26
47556;BME280;33291;46.222;26.460;2023-05-29T02:03:17;96538.59;;;13.13;90.52
47556;BME280;33291;46.222;26.460;2023-05-29T02:05:43;96554.00;;;13.16;90.67
47556;BME280;33291;46.222;26.460;2023-05-29T02:08:08;96556.59;;;13.16;90.88
47556;BME280;33291;46.222;26.460;2023-05-29T02:10:33;96559.84;;;13.10;90.87
47556;BME280;33291;46.222;26.460;2023-05-29T02:12:59;96531.09;;;12.92;91.08
47556;BME280;33291;46.222;26.460;2023-05-29T02:15:24;96566.69;;;13.03;91.17
47556;BME280;33291;46.222;26.460;2023-05-29T02:17:50;96557.94;;;12.94;91.52
47556;BME280;33291;46.222;26.460;2023-05-29T02:20:15;96565.25;;;12.90;91.68
47556;BME280;33291;46.222;26.460;2023-05-29T02:22:41;96564.88;;;12.85;91.83
47556;BME280;33291;46.222;26.460;2023-05-29T02:25:07;96556.41;;;12.83;91.93
47556;BME280;33291;46.222;26.460;2023-05-29T02:27:33;96562.72;;;12.80;91.50
47556;BME280;33291;46.222;26.460;2023-05-29T02:29:58;96566.16;;;12.81;91.74
47556;BME280;33291;46.222;26.460;2023-05-29T02:32:24;96563.19;;;12.76;91.85
47556;BME280;33291;46.222;26.460;2023-05-29T02:34:53;96569.38;;;12.75;91.65
47556;BME280;33291;46.222;26.460;2023-05-29T02:37:19;96559.97;;;12.64;91.88
47556;BME280;33291;46.222;26.460;2023-05-29T02:39:44;96566.72;;;12.67;91.82
47556;BME280;33291;46.222;26.460;2023-05-29T02:42:10;96573.50;;;12.59;92.04
47556;BME280;33291;46.222;26.460;2023-05-29T02:44:35;96570.53;;;12.54;92.21
47556;BME280;33291;46.222;26.460;2023-05-29T02:47:01;96548.22;;;12.42;92.18
47556;BME280;33291;46.222;26.460;2023-05-29T02:49:26;96574.53;;;12.49;93.17
47556;BME280;33291;46.222;26.460;2023-05-29T02:51:52;96566.69;;;12.49;92.96
47556;BME280;33291;46.222;26.460;2023-05-29T02:54:23;96565.88;;;12.48;93.55
47556;BME280;33291;46.222;26.460;2023-05-29T02:56:48;96565.06;;;12.48;93.23
47556;BME280;33291;46.222;26.460;2023-05-29T02:59:13;96557.38;;;12.46;93.38
47556;BME280;33291;46.222;26.460;2023-05-29T03:01:39;96573.59;;;12.50;93.57
47556;BME280;33291;46.222;26.460;2023-05-29T03:04:04;96577.66;;;12.52;94.00
47556;BME280;33291;46.222;26.460;2023-05-29T03:06:30;96570.81;;;12.51;94.09
47556;BME280;33291;46.222;26.460;2023-05-29T03:08:57;96572.13;;;12.55;93.73
47556;BME280;33291;46.222;26.460;2023-05-29T03:11:24;96566.91;;;12.55;93.73
47556;BME280;33291;46.222;26.460;2023-05-29T03:13:51;96561.03;;;12.53;93.63
47556;BME280;33291;46.222;26.460;2023-05-29T03:16:17;96572.22;;;12.64;93.44
47556;BME280;33291;46.222;26.460;2023-05-29T03:18:42;96582.53;;;12.65;93.57
47556;BME280;33291;46.222;26.460;2023-05-29T03:21:08;96554.84;;;12.54;93.46
47556;BME280;33291;46.222;26.460;2023-05-29T03:23:34;96552.88;;;12.56;93.68
47556;BME280;33291;46.222;26.460;2023-05-29T03:25:59;96577.53;;;12.72;93.78
47556;BME280;33291;46.222;26.460;2023-05-29T03:28:25;96577.81;;;12.69;93.87
47556;BME280;33291;46.222;26.460;2023-05-29T03:30:50;96579.16;;;12.73;93.84
47556;BME280;33291;46.222;26.460;2023-05-29T03:33:16;96580.13;;;12.72;93.81
47556;BME280;33291;46.222;26.460;2023-05-29T03:35:42;96594.03;;;12.72;93.91
47556;BME280;33291;46.222;26.460;2023-05-29T03:38:07;96585.31;;;12.64;94.32
47556;BME280;33291;46.222;26.460;2023-05-29T03:40:33;96592.00;;;12.66;93.95
47556;BME280;33291;46.222;26.460;2023-05-29T03:42:58;96597.06;;;12.68;93.84
47556;BME280;33291;46.222;26.460;2023-05-29T03:45:24;96600.88;;;12.73;93.64
47556;BME280;33291;46.222;26.460;2023-05-29T03:47:49;96599.13;;;12.74;93.57
47556;BME280;33291;46.222;26.460;2023-05-29T03:50:15;96607.97;;;12.81;93.77
47556;BME280;33291;46.222;26.460;2023-05-29T03:52:41;96580.44;;;12.69;93.76
47556;BME280;33291;46.222;26.460;2023-05-29T03:55:09;96606.41;;;12.88;93.86
47556;BME280;33291;46.222;26.460;2023-05-29T03:57:38;96609.69;;;12.90;94.06
47556;BME280;33291;46.222;26.460;2023-05-29T04:00:09;96612.00;;;12.93;94.02
47556;BME280;33291;46.222;26.460;2023-05-29T04:02:40;96610.22;;;12.94;93.78
47556;BME280;33291;46.222;26.460;2023-05-29T04:05:06;96604.47;;;12.90;93.83
47556;BME280;33291;46.222;26.460;2023-05-29T04:07:36;96603.50;;;12.91;93.70
47556;BME280;33291;46.222;26.460;2023-05-29T04:10:06;96611.41;;;13.00;93.58
47556;BME280;33291;46.222;26.460;2023-05-29T04:12:32;96606.16;;;13.00;93.08
47556;BME280;33291;46.222;26.460;2023-05-29T04:14:58;96601.94;;;12.98;93.15
47556;BME280;33291;46.222;26.460;2023-05-29T04:17:23;96607.81;;;13.01;92.96
47556;BME280;33291;46.222;26.460;2023-05-29T04:19:49;96611.78;;;13.05;92.88
47556;BME280;33291;46.222;26.460;2023-05-29T04:22:14;96621.28;;;13.06;93.16
47556;BME280;33291;46.222;26.460;2023-05-29T04:24:40;96597.66;;;12.97;93.15
47556;BME280;33291;46.222;26.460;2023-05-29T04:27:07;96611.78;;;13.05;93.86
47556;BME280;33291;46.222;26.460;2023-05-29T04:29:34;96584.00;;;12.86;94.14
47556;BME280;33291;46.222;26.460;2023-05-29T04:32:00;96610.13;;;13.04;94.04
47556;BME280;33291;46.222;26.460;2023-05-29T04:34:29;96619.53;;;13.14;94.18
47556;BME280;33291;46.222;26.460;2023-05-29T04:36:56;96609.38;;;13.11;93.59
47556;BME280;33291;46.222;26.460;2023-05-29T04:39:23;96627.00;;;13.27;93.25
47556;BME280;33291;46.222;26.460;2023-05-29T04:41:50;96631.38;;;13.27;91.32
47556;BME280;33291;46.222;26.460;2023-05-29T04:44:17;96627.16;;;13.26;92.22
47556;BME280;33291;46.222;26.460;2023-05-29T04:46:42;96627.66;;;13.29;91.89
47556;BME280;33291;46.222;26.460;2023-05-29T04:49:10;96630.06;;;13.41;91.56
47556;BME280;33291;46.222;26.460;2023-05-29T04:51:35;96629.97;;;13.50;91.34
47556;BME280;33291;46.222;26.460;2023-05-29T04:54:01;96633.75;;;13.56;91.32
47556;BME280;33291;46.222;26.460;2023-05-29T04:56:27;96622.84;;;13.61;90.46
47556;BME280;33291;46.222;26.460;2023-05-29T04:58:53;96601.50;;;13.56;89.54
47556;BME280;33291;46.222;26.460;2023-05-29T05:01:18;96620.63;;;13.74;89.70
47556;BME280;33291;46.222;26.460;2023-05-29T05:03:44;96629.31;;;13.83;88.95
47556;BME280;33291;46.222;26.460;2023-05-29T05:06:11;96623.75;;;13.86;88.47
47556;BME280;33291;46.222;26.460;2023-05-29T05:08:37;96628.19;;;13.85;87.84
47556;BME280;33291;46.222;26.460;2023-05-29T05:11:03;96635.94;;;13.95;87.73
47556;BME280;33291;46.222;26.460;2023-05-29T05:13:29;96630.72;;;14.03;87.95
47556;BME280;33291;46.222;26.460;2023-05-29T05:15:54;96634.72;;;14.16;87.97
47556;BME280;33291;46.222;26.460;2023-05-29T05:18:20;96647.00;;;14.24;88.14
47556;BME280;33291;46.222;26.460;2023-05-29T05:20:46;96626.53;;;14.19;88.02
47556;BME280;33291;46.222;26.460;2023-05-29T05:23:12;96632.47;;;14.29;88.12
47556;BME280;33291;46.222;26.460;2023-05-29T05:25:37;96653.81;;;14.43;87.96
47556;BME280;33291;46.222;26.460;2023-05-29T05:28:04;96643.47;;;14.41;87.58
47556;BME280;33291;46.222;26.460;2023-05-29T05:30:30;96646.44;;;14.54;87.47
47556;BME280;33291;46.222;26.460;2023-05-29T05:32:55;96651.09;;;14.61;87.20
47556;BME280;33291;46.222;26.460;2023-05-29T05:35:21;96637.13;;;14.60;87.27
47556;BME280;33291;46.222;26.460;2023-05-29T05:37:47;96648.50;;;14.69;87.18
47556;BME280;33291;46.222;26.460;2023-05-29T05:40:12;96646.34;;;14.72;87.13
47556;BME280;33291;46.222;26.460;2023-05-29T05:42:38;96658.16;;;14.85;87.68
47556;BME280;33291;46.222;26.460;2023-05-29T05:45:04;96652.63;;;14.88;87.12
47556;BME280;33291;46.222;26.460;2023-05-29T05:47:31;96659.00;;;14.93;86.93
47556;BME280;33291;46.222;26.460;2023-05-29T05:49:57;96649.19;;;14.96;86.61
47556;BME280;33291;46.222;26.460;2023-05-29T05:52:23;96647.38;;;15.04;86.58
47556;BME280;33291;46.222;26.460;2023-05-29T05:54:49;96645.09;;;15.09;86.33
47556;BME280;33291;46.222;26.460;2023-05-29T05:57:15;96656.25;;;15.20;84.70
47556;BME280;33291;46.222;26.460;2023-05-29T05:59:40;96649.34;;;15.27;83.93
47556;BME280;33291;46.222;26.460;2023-05-29T06:02:06;96644.13;;;15.35;83.69
47556;BME280;33291;46.222;26.460;2023-05-29T06:04:32;96652.28;;;15.49;82.73
47556;BME280;33291;46.222;26.460;2023-05-29T06:06:57;96648.84;;;15.56;80.73
47556;BME280;33291;46.222;26.460;2023-05-29T06:09:23;96654.56;;;15.68;78.52
47556;BME280;33291;46.222;26.460;2023-05-29T06:11:48;96649.00;;;15.79;76.21
47556;BME280;33291;46.222;26.460;2023-05-29T06:14:14;96642.25;;;15.85;76.57
47556;BME280;33291;46.222;26.460;2023-05-29T06:16:40;96639.78;;;15.92;75.82
47556;BME280;33291;46.222;26.460;2023-05-29T06:19:05;96638.59;;;16.03;75.10
47556;BME280;33291;46.222;26.460;2023-05-29T06:21:31;96630.53;;;16.04;75.00
47556;BME280;33291;46.222;26.460;2023-05-29T06:23:57;96642.28;;;16.25;74.30
47556;BME280;33291;46.222;26.460;2023-05-29T06:26:23;96638.81;;;16.32;72.95
47556;BME280;33291;46.222;26.460;2023-05-29T06:28:50;96644.16;;;16.47;72.36
47556;BME280;33291;46.222;26.460;2023-05-29T06:31:16;96637.19;;;16.55;70.27
47556;BME280;33291;46.222;26.460;2023-05-29T06:33:41;96633.94;;;16.52;69.57
47556;BME280;33291;46.222;26.460;2023-05-29T06:36:07;96625.53;;;16.57;68.40
47556;BME280;33291;46.222;26.460;2023-05-29T06:38:33;96635.47;;;16.70;61.96
47556;BME280;33291;46.222;26.460;2023-05-29T06:40:58;96620.38;;;16.64;60.95
47556;BME280;33291;46.222;26.460;2023-05-29T06:43:24;96632.91;;;16.85;61.87
47556;BME280;33291;46.222;26.460;2023-05-29T06:45:49;96629.41;;;16.93;61.27
47556;BME280;33291;46.222;26.460;2023-05-29T06:48:15;96630.94;;;17.10;60.39
47556;BME280;33291;46.222;26.460;2023-05-29T06:50:40;96620.94;;;17.29;60.02
47556;BME280;33291;46.222;26.460;2023-05-29T06:53:06;96616.41;;;17.37;59.77
47556;BME280;33291;46.222;26.460;2023-05-29T06:55:31;96620.25;;;17.50;58.51
47556;BME280;33291;46.222;26.460;2023-05-29T06:57:57;96626.25;;;17.58;57.48
47556;BME280;33291;46.222;26.460;2023-05-29T07:00:22;96629.09;;;17.72;56.47
47556;BME280;33291;46.222;26.460;2023-05-29T07:02:48;96614.53;;;17.76;54.75
47556;BME280;33291;46.222;26.460;2023-05-29T07:05:13;96620.72;;;17.83;55.93
47556;BME280;33291;46.222;26.460;2023-05-29T07:07:39;96625.28;;;17.89;55.74
47556;BME280;33291;46.222;26.460;2023-05-29T07:10:05;96621.56;;;17.99;57.17
47556;BME280;33291;46.222;26.460;2023-05-29T07:12:31;96617.22;;;18.06;54.80
47556;BME280;33291;46.222;26.460;2023-05-29T07:14:56;96615.13;;;18.16;54.78
47556;BME280;33291;46.222;26.460;2023-05-29T07:17:22;96623.44;;;18.35;54.44
47556;BME280;33291;46.222;26.460;2023-05-29T07:19:47;96622.75;;;18.47;53.62
47556;BME280;33291;46.222;26.460;2023-05-29T07:22:15;96613.56;;;18.58;51.34
47556;BME280;33291;46.222;26.460;2023-05-29T07:24:40;96624.19;;;18.65;49.61
47556;BME280;33291;46.222;26.460;2023-05-29T07:27:06;96613.25;;;18.68;49.22
47556;BME280;33291;46.222;26.460;2023-05-29T07:29:32;96594.94;;;18.60;48.62
47556;BME280;33291;46.222;26.460;2023-05-29T07:31:57;96615.84;;;18.83;48.24
47556;BME280;33291;46.222;26.460;2023-05-29T07:34:23;96611.03;;;18.87;48.56
47556;BME280;33291;46.222;26.460;2023-05-29T07:37:14;96616.88;;;19.04;48.45
47556;BME280;33291;46.222;26.460;2023-05-29T07:39:40;96609.84;;;19.11;47.36
47556;BME280;33291;46.222;26.460;2023-05-29T07:42:06;96613.75;;;19.15;47.94
47556;BME280;33291;46.222;26.460;2023-05-29T07:44:32;96613.97;;;19.20;48.04
47556;BME280;33291;46.222;26.460;2023-05-29T07:46:57;96603.91;;;19.30;45.13
47556;BME280;33291;46.222;26.460;2023-05-29T07:49:22;96603.72;;;19.32;45.96
47556;BME280;33291;46.222;26.460;2023-05-29T07:51:48;96603.09;;;19.30;46.83
47556;BME280;33291;46.222;26.460;2023-05-29T07:54:13;96590.09;;;19.28;46.45
47556;BME280;33291;46.222;26.460;2023-05-29T07:56:42;96610.78;;;19.53;45.18
47556;BME280;33291;46.222;26.460;2023-05-29T07:59:09;96600.25;;;19.60;44.09
47556;BME280;33291;46.222;26.460;2023-05-29T08:01:35;96603.56;;;19.68;44.08
47556;BME280;33291;46.222;26.460;2023-05-29T08:04:00;96591.34;;;19.67;43.94
47556;BME280;33291;46.222;26.460;2023-05-29T08:06:26;96597.75;;;19.80;43.61
47556;BME280;33291;46.222;26.460;2023-05-29T08:08:51;96605.28;;;19.83;43.78
47556;BME280;33291;46.222;26.460;2023-05-29T08:11:18;96600.88;;;19.90;44.50
47556;BME280;33291;46.222;26.460;2023-05-29T08:13:43;96601.16;;;20.09;43.11
47556;BME280;33291;46.222;26.460;2023-05-29T08:16:09;96588.56;;;20.11;43.28
47556;BME280;33291;46.222;26.460;2023-05-29T08:18:34;96571.66;;;20.05;43.00
47556;BME280;33291;46.222;26.460;2023-05-29T08:21:00;96593.69;;;20.19;42.41
47556;BME280;33291;46.222;26.460;2023-05-29T08:23:26;96592.50;;;20.28;42.67
47556;BME280;33291;46.222;26.460;2023-05-29T08:25:51;96584.16;;;20.31;41.10
47556;BME280;33291;46.222;26.460;2023-05-29T08:28:17;96586.78;;;20.24;42.04
47556;BME280;33291;46.222;26.460;2023-05-29T08:30:42;96593.53;;;20.27;42.90
47556;BME280;33291;46.222;26.460;2023-05-29T08:33:08;96600.28;;;20.36;41.61
47556;BME280;33291;46.222;26.460;2023-05-29T08:35:33;96597.19;;;20.33;41.69
47556;BME280;33291;46.222;26.460;2023-05-29T08:37:59;96599.22;;;20.31;42.17
47556;BME280;33291;46.222;26.460;2023-05-29T08:40:25;96602.47;;;20.33;41.95
47556;BME280;33291;46.222;26.460;2023-05-29T08:43:10;96592.88;;;20.25;41.73
47556;BME280;33291;46.222;26.460;2023-05-29T08:45:42;96585.00;;;20.32;40.31
47556;BME280;33291;46.222;26.460;2023-05-29T08:48:09;96594.75;;;20.31;41.84
47556;BME280;33291;46.222;26.460;2023-05-29T08:50:35;96599.88;;;20.39;41.37
47556;BME280;33291;46.222;26.460;2023-05-29T08:53:01;96587.84;;;20.37;39.50
47556;BME280;33291;46.222;26.460;2023-05-29T08:55:27;96585.41;;;20.42;40.89
47556;BME280;33291;46.222;26.460;2023-05-29T08:57:53;96582.56;;;20.37;40.77
47556;BME280;33291;46.222;26.460;2023-05-29T09:00:19;96584.25;;;20.51;41.59
47556;BME280;33291;46.222;26.460;2023-05-29T09:02:47;96581.59;;;20.58;39.92
47556;BME280;33291;46.222;26.460;2023-05-29T09:05:13;96583.03;;;20.61;39.98
47556;BME280;33291;46.222;26.460;2023-05-29T09:07:39;96556.94;;;20.51;40.43
47556;BME280;33291;46.222;26.460;2023-05-29T09:10:05;96569.38;;;20.50;42.27
47556;BME280;33291;46.222;26.460;2023-05-29T09:12:32;96565.72;;;20.58;42.63
47556;BME280;33291;46.222;26.460;2023-05-29T09:14:58;96564.97;;;20.77;40.38
47556;BME280;33291;46.222;26.460;2023-05-29T09:17:24;96571.91;;;20.79;41.61
47556;BME280;33291;46.222;26.460;2023-05-29T09:19:55;96573.94;;;20.70;38.35
47556;BME280;33291;46.222;26.460;2023-05-29T09:22:20;96557.59;;;20.53;38.89
47556;BME280;33291;46.222;26.460;2023-05-29T09:24:47;96557.53;;;20.39;39.21
47556;BME280;33291;46.222;26.460;2023-05-29T09:27:13;96554.50;;;20.42;39.75
47556;BME280;33291;46.222;26.460;2023-05-29T09:29:39;96564.47;;;20.54;40.87
47556;BME280;33291;46.222;26.460;2023-05-29T09:32:14;96567.81;;;20.69;41.44
47556;BME280;33291;46.222;26.460;2023-05-29T09:34:41;96559.88;;;20.76;39.73
47556;BME280;33291;46.222;26.460;2023-05-29T09:37:08;96556.84;;;20.79;38.91
47556;BME280;33291;46.222;26.460;2023-05-29T09:39:54;96547.66;;;20.95;39.72
47556;BME280;33291;46.222;26.460;2023-05-29T09:42:20;96541.38;;;21.09;40.93
47556;BME280;33291;46.222;26.460;2023-05-29T09:44:50;96545.03;;;21.22;40.73
47556;BME280;33291;46.222;26.460;2023-05-29T09:47:19;96545.03;;;21.22;38.88
47556;BME280;33291;46.222;26.460;2023-05-29T09:49:45;96534.84;;;21.19;38.77
47556;BME280;33291;46.222;26.460;2023-05-29T09:52:14;96549.28;;;21.29;38.32
47556;BME280;33291;46.222;26.460;2023-05-29T09:54:44;96552.53;;;21.32;38.70
47556;BME280;33291;46.222;26.460;2023-05-29T09:57:13;96551.94;;;21.36;38.17
47556;BME280;33291;46.222;26.460;2023-05-29T09:59:41;96541.31;;;21.36;37.86
47556;BME280;33291;46.222;26.460;2023-05-29T10:02:09;96564.56;;;21.47;37.68
47556;BME280;33291;46.222;26.460;2023-05-29T10:04:37;96553.16;;;21.47;36.69
47556;BME280;33291;46.222;26.460;2023-05-29T10:07:15;96535.66;;;21.39;38.14
47556;BME280;33291;46.222;26.460;2023-05-29T10:09:47;96548.28;;;21.51;39.05
47556;BME280;33291;46.222;26.460;2023-05-29T10:12:19;96550.91;;;21.57;38.47
47556;BME280;33291;46.222;26.460;2023-05-29T10:14:47;96555.78;;;21.67;38.41
47556;BME280;33291;46.222;26.460;2023-05-29T10:17:18;96551.72;;;21.71;39.20
47556;BME280;33291;46.222;26.460;2023-05-29T10:19:48;96538.44;;;21.78;37.59
47556;BME280;33291;46.222;26.460;2023-05-29T10:22:19;96543.47;;;21.93;38.34
47556;BME280;33291;46.222;26.460;2023-05-29T10:24:48;96551.44;;;21.93;37.22
47556;BME280;33291;46.222;26.460;2023-05-29T10:27:14;96556.31;;;21.96;37.00
47556;BME280;33291;46.222;26.460;2023-05-29T10:30:04;96548.16;;;21.91;36.37
47556;BME280;33291;46.222;26.460;2023-05-29T10:35:47;96555.56;;;21.75;37.77
47556;BME280;33291;46.222;26.460;2023-05-29T10:38:15;96543.56;;;21.66;36.50
47556;BME280;33291;46.222;26.460;2023-05-29T10:40:44;96548.47;;;21.56;36.97
47556;BME280;33291;46.222;26.460;2023-05-29T10:43:31;96549.06;;;21.44;38.24
47556;BME280;33291;46.222;26.460;2023-05-29T10:46:01;96538.06;;;21.47;39.20
47556;BME280;33291;46.222;26.460;2023-05-29T10:50:56;96524.81;;;21.61;38.56
47556;BME280;33291;46.222;26.460;2023-05-29T10:53:26;96516.03;;;21.67;38.37
47556;BME280;33291;46.222;26.460;2023-05-29T10:55:56;96509.91;;;21.73;37.47
47556;BME280;33291;46.222;26.460;2023-05-29T10:58:22;96516.44;;;21.64;36.85
47556;BME280;33291;46.222;26.460;2023-05-29T11:00:50;96505.47;;;21.54;37.90
47556;BME280;33291;46.222;26.460;2023-05-29T11:03:29;96519.31;;;21.56;40.00
47556;BME280;33291;46.222;26.460;2023-05-29T11:06:00;96518.88;;;21.72;38.40
47556;BME280;33291;46.222;26.460;2023-05-29T11:08:43;96515.38;;;21.78;38.93
47556;BME280;33291;46.222;26.460;2023-05-29T11:11:15;96504.75;;;21.85;36.74
47556;BME280;33291;46.222;26.460;2023-05-29T11:13:41;96508.63;;;21.82;36.06
47556;BME280;33291;46.222;26.460;2023-05-29T11:16:35;96499.41;;;21.92;36.27
47556;BME280;33291;46.222;26.460;2023-05-29T11:19:07;96501.25;;;21.91;37.32
47556;BME280;33291;46.222;26.460;2023-05-29T11:21:44;96498.03;;;21.82;35.29
47556;BME280;33291;46.222;26.460;2023-05-29T11:24:27;96507.84;;;21.82;36.73
47556;BME280;33291;46.222;26.460;2023-05-29T11:26:55;96500.50;;;21.77;36.65
47556;BME280;33291;46.222;26.460;2023-05-29T11:29:26;96508.22;;;21.86;37.38
47556;BME280;33291;46.222;26.460;2023-05-29T11:31:58;96513.50;;;21.86;35.96
47556;BME280;33291;46.222;26.460;2023-05-29T11:34:28;96494.97;;;21.86;35.82
47556;BME280;33291;46.222;26.460;2023-05-29T11:36:56;96498.78;;;21.96;36.29
47556;BME280;33291;46.222;26.460;2023-05-29T11:39:22;96489.59;;;21.99;36.13
47556;BME280;33291;46.222;26.460;2023-05-29T11:41:51;96489.97;;;22.09;36.39
47556;BME280;33291;46.222;26.460;2023-05-29T11:44:19;96477.13;;;22.06;37.38
47556;BME280;33291;46.222;26.460;2023-05-29T11:46:46;96487.75;;;22.06;35.17
47556;BME280;33291;46.222;26.460;2023-05-29T11:49:12;96493.09;;;21.86;35.61
47556;BME280;33291;46.222;26.460;2023-05-29T11:51:37;96489.06;;;21.83;37.04
47556;BME280;33291;46.222;26.460;2023-05-29T11:54:03;96483.50;;;21.92;36.79
47556;BME280;33291;46.222;26.460;2023-05-29T11:56:30;96478.03;;;21.87;36.62
47556;BME280;33291;46.222;26.460;2023-05-29T11:58:58;96473.75;;;21.86;36.87
47556;BME280;33291;46.222;26.460;2023-05-29T12:01:25;96469.88;;;21.88;35.83
47556;BME280;33291;46.222;26.460;2023-05-29T12:03:52;96443.03;;;21.71;37.35
47556;BME280;33291;46.222;26.460;2023-05-29T12:06:31;96462.88;;;21.94;36.42
47556;BME280;33291;46.222;26.460;2023-05-29T12:08:58;96479.59;;;22.01;37.08
47556;BME280;33291;46.222;26.460;2023-05-29T12:11:23;96473.84;;;22.11;36.33
47556;BME280;33291;46.222;26.460;2023-05-29T12:13:57;96461.81;;;22.08;35.99
47556;BME280;33291;46.222;26.460;2023-05-29T12:16:25;96461.38;;;22.11;36.10
47556;BME280;33291;46.222;26.460;2023-05-29T12:18:51;96459.28;;;22.20;36.62
47556;BME280;33291;46.222;26.460;2023-05-29T12:21:17;96456.22;;;22.16;36.80
47556;BME280;33291;46.222;26.460;2023-05-29T12:23:43;96465.63;;;22.19;35.27
47556;BME280;33291;46.222;26.460;2023-05-29T12:26:08;96462.69;;;22.27;36.08
47556;BME280;33291;46.222;26.460;2023-05-29T12:28:34;96447.81;;;22.33;35.99
47556;BME280;33291;46.222;26.460;2023-05-29T12:30:59;96453.28;;;22.38;35.11
47556;BME280;33291;46.222;26.460;2023-05-29T12:33:27;96436.53;;;22.38;35.98
47556;BME280;33291;46.222;26.460;2023-05-29T12:35:53;96443.53;;;22.32;35.28
47556;BME280;33291;46.222;26.460;2023-05-29T12:38:19;96453.94;;;22.33;34.73
47556;BME280;33291;46.222;26.460;2023-05-29T12:40:48;96451.28;;;22.33;34.94
47556;BME280;33291;46.222;26.460;2023-05-29T12:43:14;96455.69;;;22.46;35.59
47556;BME280;33291;46.222;26.460;2023-05-29T12:45:39;96447.44;;;22.54;35.00
47556;BME280;33291;46.222;26.460;2023-05-29T12:48:06;96441.47;;;22.59;34.09
47556;BME280;33291;46.222;26.460;2023-05-29T12:50:38;96432.72;;;22.59;34.31
47556;BME280;33291;46.222;26.460;2023-05-29T12:53:05;96449.41;;;22.66;33.73
47556;BME280;33291;46.222;26.460;2023-05-29T12:55:38;96445.78;;;22.60;33.79
47556;BME280;33291;46.222;26.460;2023-05-29T12:58:05;96446.56;;;22.61;33.22
47556;BME280;33291;46.222;26.460;2023-05-29T13:00:33;96423.03;;;22.46;33.62